Time;durP1;ratioP1;P1;durP2;ratioP2;P2;SDS_P1;SDS_P2;PMS_P1;PMS_P2;Temp;Humidity;BMP_temperature;BMP_pressure;BME280_temperature;BME280_humidity;BME280_pressure;Samples;Min_cycle;Max_cycle;Signal;HPM_P1;HPM_P2
2022/03/31 00:00:52;;;;;;;6.07;3.50;;;;;;;3.66;72.47;99499.09;4993791;28;20576;-83
2022/03/31 00:03:21;;;;;;;8.93;4.13;;;;;;;3.64;72.04;99498.31;4997043;28;20231;-83
2022/03/31 00:05:48;;;;;;;8.90;3.27;;;;;;;3.61;72.82;99496.69;4994553;28;20255;-81
2022/03/31 00:08:16;;;;;;;6.47;3.57;;;;;;;3.61;72.36;99490.59;5001591;28;20658;-82
2022/03/31 00:10:45;;;;;;;7.27;3.27;;;;;;;3.59;72.26;99493.28;4994036;28;20678;-82
2022/03/31 00:13:14;;;;;;;7.53;4.13;;;;;;;3.58;72.86;99494.25;5007934;28;20243;-83
2022/03/31 00:15:41;;;;;;;6.83;3.53;;;;;;;3.58;72.63;99496.03;4984332;28;20278;-84
2022/03/31 00:18:10;;;;;;;5.17;3.47;;;;;;;3.56;72.32;99498.75;5003979;28;20220;-82
2022/03/31 00:34:05;;;;;;;6.00;3.43;;;;;;;3.41;73.32;99487.22;4994905;28;20242;-82
2022/03/31 00:36:32;;;;;;;10.53;5.53;;;;;;;3.42;73.09;99490.72;4996518;28;20235;-83
2022/03/31 00:41:42;;;;;;;6.90;3.60;;;;;;;3.42;73.62;99469.66;5004117;28;20283;-84
2022/03/31 00:44:09;;;;;;;5.73;3.60;;;;;;;3.43;73.66;99474.84;4999764;28;20230;-80
2022/03/31 00:46:36;;;;;;;8.53;3.70;;;;;;;3.44;73.36;99476.53;5008650;28;20230;-83
2022/03/31 00:49:03;;;;;;;11.17;4.50;;;;;;;3.44;73.11;99480.94;4998588;28;20238;-83
2022/03/31 00:51:31;;;;;;;9.43;5.00;;;;;;;3.42;73.92;99475.75;4997293;28;20295;-81
2022/03/31 00:53:58;;;;;;;9.10;4.90;;;;;;;3.43;73.72;99473.97;4997327;28;20581;-81
2022/03/31 00:56:25;;;;;;;7.40;4.03;;;;;;;3.43;74.16;99472.19;4995440;28;20262;-83
2022/03/31 00:58:53;;;;;;;7.10;4.57;;;;;;;3.44;73.95;99476.53;4994500;28;20265;-83
2022/03/31 01:01:20;;;;;;;6.20;3.97;;;;;;;3.43;73.91;99472.19;4995944;28;20655;-82
2022/03/31 01:03:47;;;;;;;7.87;4.27;;;;;;;3.43;73.71;99464.31;4996799;28;20212;-81
2022/03/31 01:06:14;;;;;;;6.53;4.10;;;;;;;3.45;74.00;99459.81;4993476;28;20675;-83
2022/03/31 01:08:42;;;;;;;6.50;3.83;;;;;;;3.44;74.02;99457.25;4996543;28;20310;-82
2022/03/31 01:11:09;;;;;;;7.43;4.40;;;;;;;3.41;73.71;99454.78;4996545;28;20677;-83
2022/03/31 01:13:36;;;;;;;5.97;3.70;;;;;;;3.36;74.07;99459.47;4995588;28;20274;-82
2022/03/31 01:16:03;;;;;;;6.47;3.80;;;;;;;3.30;73.30;99446.63;4995294;28;20236;-83
2022/03/31 01:18:29;;;;;;;5.73;3.37;;;;;;;3.26;73.26;99452.97;4995031;28;20208;-83
2022/03/31 01:20:56;;;;;;;8.57;3.97;;;;;;;3.21;72.88;99447.97;4997139;28;20271;-82
2022/03/31 01:23:25;;;;;;;6.40;3.10;;;;;;;3.18;73.03;99450.75;4996152;28;20250;-83
2022/03/31 01:25:52;;;;;;;10.03;3.67;;;;;;;3.16;73.77;99449.97;4997000;28;20208;-82
2022/03/31 01:28:18;;;;;;;7.97;4.20;;;;;;;3.13;73.46;99443.09;4996512;28;20204;-82
2022/03/31 01:30:46;;;;;;;7.40;3.67;;;;;;;3.09;73.80;99454.69;4996139;28;20218;-83
2022/03/31 01:33:14;;;;;;;6.40;4.00;;;;;;;3.06;73.94;99446.97;4997388;28;20247;-82
2022/03/31 01:35:41;;;;;;;9.90;4.13;;;;;;;3.03;73.20;99444.53;4999774;28;20211;-81
2022/03/31 01:38:08;;;;;;;8.67;3.67;;;;;;;3.03;73.49;99443.66;4996412;28;20251;-82
2022/03/31 01:40:36;;;;;;;7.43;4.87;;;;;;;3.03;73.88;99441.03;4994326;28;20838;-83
2022/03/31 01:43:03;;;;;;;8.40;4.20;;;;;;;3.00;73.72;99438.56;4997345;28;20207;-82
2022/03/31 01:45:30;;;;;;;8.93;4.03;;;;;;;3.00;73.59;99443.81;4996511;28;20207;-82
2022/03/31 01:47:57;;;;;;;6.97;3.70;;;;;;;2.97;73.49;99434.31;4996923;28;20234;-81
2022/03/31 01:50:24;;;;;;;7.63;4.70;;;;;;;2.98;73.75;99435.16;4996475;28;20535;-81
2022/03/31 01:52:51;;;;;;;8.50;4.30;;;;;;;2.96;74.31;99429.13;4997406;28;20211;-81
2022/03/31 01:55:17;;;;;;;5.53;3.97;;;;;;;2.95;74.39;99433.53;4995844;28;20216;-82
2022/03/31 01:57:45;;;;;;;8.07;4.20;;;;;;;2.94;74.62;99429.19;4996473;28;20293;-81
2022/03/31 02:00:13;;;;;;;7.80;4.73;;;;;;;2.94;74.56;99430.97;4995747;28;20246;-81
2022/03/31 02:02:40;;;;;;;8.37;4.83;;;;;;;2.93;74.76;99424.88;4992059;28;20287;-82
2022/03/31 02:05:07;;;;;;;9.67;4.70;;;;;;;2.92;74.28;99419.69;4995118;28;20208;-83
2022/03/31 02:07:34;;;;;;;7.17;4.73;;;;;;;2.91;75.22;99415.34;4995889;28;20219;-83
2022/03/31 02:10:01;;;;;;;7.43;5.00;;;;;;;2.89;74.97;99415.44;4995412;28;20230;-82
2022/03/31 02:12:27;;;;;;;9.67;5.03;;;;;;;2.89;75.24;99406.69;4995605;28;20242;-83
2022/03/31 02:14:55;;;;;;;11.00;5.27;;;;;;;2.87;74.77;99414.66;4995536;28;20211;-82
2022/03/31 02:17:22;;;;;;;7.77;5.30;;;;;;;2.86;74.69;99420.88;4995427;28;20251;-82
2022/03/31 02:19:49;;;;;;;8.10;4.53;;;;;;;2.83;74.91;99415.75;4996989;28;20660;-82
2022/03/31 02:22:15;;;;;;;8.17;5.53;;;;;;;2.80;75.20;99413.28;4993618;28;20239;-81
2022/03/31 02:24:42;;;;;;;9.50;5.13;;;;;;;2.78;74.95;99413.38;4996495;28;20246;-82
2022/03/31 02:27:09;;;;;;;11.10;5.73;;;;;;;2.76;75.78;99411.75;4996336;28;20554;-82
2022/03/31 02:29:35;;;;;;;8.97;5.57;;;;;;;2.74;75.70;99405.69;4994203;28;20245;-82
2022/03/31 02:32:04;;;;;;;11.20;5.87;;;;;;;2.73;75.65;99415.38;4996518;28;20329;-81
2022/03/31 02:34:31;;;;;;;10.60;6.20;;;;;;;2.73;75.72;99410.09;4996332;28;20199;-81
2022/03/31 02:36:59;;;;;;;10.63;7.37;;;;;;;2.72;76.12;99408.41;4995723;28;20227;-81
2022/03/31 02:39:28;;;;;;;9.43;6.60;;;;;;;2.71;75.74;99409.34;4996231;28;20208;-81
2022/03/31 02:41:57;;;;;;;11.47;6.80;;;;;;;2.70;76.24;99405.00;4993461;28;20597;-82
2022/03/31 02:44:25;;;;;;;12.50;6.83;;;;;;;2.69;76.65;99398.03;4994283;28;20215;-81
2022/03/31 02:46:52;;;;;;;13.57;6.73;;;;;;;2.67;76.56;99399.94;5003150;28;20590;-81
2022/03/31 02:49:20;;;;;;;11.60;7.30;;;;;;;2.65;76.21;99401.78;4995151;28;20212;-82
2022/03/31 02:51:47;;;;;;;11.93;6.60;;;;;;;2.64;76.62;99400.06;4995261;28;20234;-82
2022/03/31 02:56:58;;;;;;;14.97;8.53;;;;;;;2.60;77.30;99393.28;4989185;28;20238;-81
2022/03/31 02:59:24;;;;;;;19.37;8.23;;;;;;;2.59;77.47;99396.81;4994374;28;20203;-82
2022/03/31 03:01:51;;;;;;;12.63;8.43;;;;;;;2.59;77.52;99388.09;4994574;28;20208;-82
2022/03/31 03:04:19;;;;;;;16.63;8.20;;;;;;;2.59;77.79;99388.09;4994736;28;20215;-82
2022/03/31 03:06:46;;;;;;;14.50;9.20;;;;;;;2.59;77.26;99388.94;4994327;28;20235;-82
2022/03/31 03:09:12;;;;;;;11.87;8.00;;;;;;;2.57;77.85;99385.53;4994734;28;20213;-82
2022/03/31 03:11:39;;;;;;;12.37;7.30;;;;;;;2.57;77.44;99387.31;4994491;28;20567;-82
2022/03/31 03:14:06;;;;;;;13.17;7.43;;;;;;;2.56;77.61;99388.25;4994629;28;20207;-82
2022/03/31 03:16:33;;;;;;;13.63;8.23;;;;;;;2.54;78.22;99388.31;4983713;28;20290;-82
2022/03/31 03:19:00;;;;;;;15.37;8.33;;;;;;;2.52;77.63;99387.53;4975388;28;20291;-82
2022/03/31 03:21:28;;;;;;;14.87;8.30;;;;;;;2.50;78.08;99386.78;4975009;28;20204;-82
2022/03/31 03:23:55;;;;;;;17.50;9.33;;;;;;;2.49;77.74;99385.09;4987966;28;20582;-81
2022/03/31 03:26:21;;;;;;;17.03;10.13;;;;;;;2.49;78.11;99389.50;4994755;28;20220;-82
2022/03/31 03:28:48;;;;;;;15.50;10.13;;;;;;;2.48;78.63;99383.38;4994341;28;20286;-82
2022/03/31 03:31:15;;;;;;;15.23;10.77;;;;;;;2.50;78.26;99383.31;4993550;28;20275;-81
2022/03/31 03:33:41;;;;;;;16.13;10.70;;;;;;;2.51;78.71;99387.66;4992395;28;20888;-82
2022/03/31 03:36:11;;;;;;;18.40;10.37;;;;;;;2.53;79.36;99388.38;4993309;28;20218;-82
2022/03/31 03:38:40;;;;;;;16.03;10.57;;;;;;;2.53;79.41;99391.88;4994687;28;20200;-82
2022/03/31 03:41:07;;;;;;;16.63;11.20;;;;;;;2.56;79.07;99390.88;4995981;28;20216;-81
2022/03/31 03:43:34;;;;;;;19.40;11.70;;;;;;;2.57;79.41;99392.56;4994322;28;20283;-82
2022/03/31 03:46:00;;;;;;;20.37;12.53;;;;;;;2.58;79.29;99389.00;4995632;28;20299;-82
2022/03/31 03:48:27;;;;;;;18.80;11.97;;;;;;;2.60;79.90;99397.69;4997068;28;20219;-82
2022/03/31 03:50:55;;;;;;;17.23;11.73;;;;;;;2.62;80.11;99401.94;4993946;28;20628;-82
2022/03/31 03:53:21;;;;;;;18.47;12.10;;;;;;;2.62;80.29;99401.94;4992920;28;20239;-82
2022/03/31 03:55:51;;;;;;;19.13;11.63;;;;;;;2.64;79.62;99400.06;4992645;28;20230;-80
2022/03/31 03:58:19;;;;;;;21.83;11.83;;;;;;;2.64;80.32;99402.72;4992171;28;20638;-81
2022/03/31 04:00:46;;;;;;;18.13;11.77;;;;;;;2.66;79.59;99402.63;4992717;28;20263;-81
2022/03/31 04:03:13;;;;;;;16.93;11.97;;;;;;;2.65;80.11;99400.94;4993869;28;20203;-81
2022/03/31 04:05:42;;;;;;;19.90;12.83;;;;;;;2.64;80.13;99402.72;4994015;28;20222;-82
2022/03/31 04:08:09;;;;;;;21.57;12.30;;;;;;;2.65;80.45;99400.94;4995319;28;20223;-81
2022/03/31 04:10:38;;;;;;;17.90;12.67;;;;;;;2.63;80.05;99402.78;4998335;28;20250;-81
2022/03/31 04:13:06;;;;;;;23.30;13.47;;;;;;;2.63;80.52;99405.41;5000682;28;20297;-80
2022/03/31 04:15:33;;;;;;;19.70;13.00;;;;;;;2.65;80.22;99399.16;4996189;28;20201;-81
2022/03/31 04:18:01;;;;;;;19.47;12.87;;;;;;;2.70;80.36;99398.91;4996869;28;20231;-81
2022/03/31 04:20:29;;;;;;;24.77;14.17;;;;;;;2.73;80.80;99399.59;4998558;28;20203;-82
2022/03/31 04:22:55;;;;;;;20.80;13.63;;;;;;;2.77;80.85;99395.03;4998458;28;20204;-81
2022/03/31 04:25:23;;;;;;;22.43;13.40;;;;;;;2.82;81.02;99394.81;4997301;28;20199;-82
2022/03/31 04:27:50;;;;;;;24.93;14.90;;;;;;;2.83;81.58;99384.22;4995635;28;20278;-81
2022/03/31 04:30:21;;;;;;;22.57;13.83;;;;;;;2.85;81.27;99386.75;5001211;28;20303;-82
2022/03/31 04:32:48;;;;;;;23.70;13.77;;;;;;;2.88;81.52;99392.69;4997706;28;20662;-80
2022/03/31 04:35:19;;;;;;;22.90;14.60;;;;;;;2.88;81.96;99390.06;4996049;28;20211;-81
2022/03/31 04:37:46;;;;;;;22.13;14.10;;;;;;;2.90;81.81;99389.97;4996009;28;20318;-81
2022/03/31 04:40:14;;;;;;;19.90;13.87;;;;;;;2.91;82.83;99389.91;4996680;28;20200;-82
2022/03/31 04:42:40;;;;;;;27.27;15.07;;;;;;;2.93;82.72;99384.56;4996218;28;20304;-81
2022/03/31 04:45:11;;;;;;;20.33;14.27;;;;;;;2.96;83.04;99389.66;5002205;28;20211;-81
2022/03/31 04:47:41;;;;;;;22.10;14.43;;;;;;;2.99;82.54;99392.16;4995764;28;20681;-82
2022/03/31 04:50:09;;;;;;;23.90;14.53;;;;;;;3.01;82.79;99391.16;4996072;28;20640;-82
2022/03/31 04:52:35;;;;;;;20.20;14.43;;;;;;;3.04;83.66;99393.63;4998158;28;20233;-82
2022/03/31 04:55:06;;;;;;;20.87;14.27;;;;;;;3.06;83.36;99398.78;4995202;28;20215;-81
2022/03/31 04:57:32;;;;;;;22.43;14.73;;;;;;;3.06;83.63;99396.13;4994641;28;20231;-81
2022/03/31 04:59:59;;;;;;;29.33;15.23;;;;;;;3.10;82.94;99392.41;4998052;28;20672;-81
2022/03/31 05:02:25;;;;;;;23.37;14.07;;;;;;;3.12;83.40;99380.88;5007888;28;20769;-83
2022/03/31 05:04:55;;;;;;;19.10;14.20;;;;;;;3.15;83.33;99390.41;5003163;28;20218;-82
2022/03/31 05:07:21;;;;;;;24.43;15.00;;;;;;;3.16;83.81;99384.22;4999008;28;20227;-83
2022/03/31 05:09:48;;;;;;;22.63;14.60;;;;;;;3.18;84.17;99389.41;4996858;28;20211;-82
2022/03/31 05:12:15;;;;;;;25.87;14.03;;;;;;;3.20;84.17;99392.81;4997152;28;20286;-80
2022/03/31 05:14:41;;;;;;;21.00;14.70;;;;;;;3.22;84.15;99398.84;4996813;28;20747;-82
2022/03/31 05:17:08;;;;;;;23.00;13.83;;;;;;;3.22;84.06;99394.44;5008038;28;20223;-81
2022/03/31 05:19:35;;;;;;;22.33;13.13;;;;;;;3.23;84.41;99388.19;5001374;28;20195;-83
2022/03/31 05:22:03;;;;;;;20.40;12.60;;;;;;;3.24;84.49;99389.91;5003576;28;20200;-82
2022/03/31 05:24:30;;;;;;;17.30;12.63;;;;;;;3.24;83.92;99389.91;5002530;28;20562;-81
2022/03/31 05:26:56;;;;;;;21.93;12.83;;;;;;;3.24;84.02;99392.53;4984528;28;20732;-81
2022/03/31 05:29:23;;;;;;;16.37;12.17;;;;;;;3.25;83.87;99386.34;4995142;28;20212;-83
2022/03/31 05:31:50;;;;;;;16.77;11.87;;;;;;;3.24;84.38;99389.91;4996781;28;20444;-82
2022/03/31 05:34:16;;;;;;;18.00;12.20;;;;;;;3.25;83.91;99391.59;4993800;28;20270;-82
2022/03/31 05:36:43;;;;;;;17.35;11.25;;;;;;;3.24;84.01;99395.16;5000907;28;20234;-82
2022/03/31 05:39:11;;;;;;;19.37;12.30;;;;;;;3.24;83.80;99392.53;5001251;28;20914;-81
2022/03/31 05:41:37;;;;;;;19.40;13.23;;;;;;;3.26;83.74;99403.81;5001047;28;20290;-81
2022/03/31 05:44:05;;;;;;;25.17;13.63;;;;;;;3.28;83.77;99396.72;5002096;28;20217;-82
2022/03/31 05:46:31;;;;;;;25.13;14.20;;;;;;;3.30;83.97;99405.38;5000889;28;20232;-82
2022/03/31 05:48:58;;;;;;;24.67;13.87;;;;;;;3.31;84.03;99396.56;5000854;28;20212;-82
2022/03/31 05:51:25;;;;;;;23.57;14.47;;;;;;;3.32;83.91;99403.50;4981941;28;20236;-82
2022/03/31 05:53:52;;;;;;;24.13;14.20;;;;;;;3.32;83.72;99400.88;4981738;28;20581;-82
2022/03/31 05:56:20;;;;;;;25.23;14.63;;;;;;;3.33;83.75;99414.88;4981976;28;20247;-82
2022/03/31 05:58:47;;;;;;;28.37;15.80;;;;;;;3.32;83.97;99414.03;4981750;28;20591;-81
2022/03/31 06:01:14;;;;;;;25.57;14.53;;;;;;;3.34;83.54;99417.44;4982381;28;20764;-82
2022/03/31 06:03:40;;;;;;;22.87;14.87;;;;;;;3.36;83.20;99412.94;4981841;28;20208;-82
2022/03/31 06:06:07;;;;;;;25.83;15.27;;;;;;;3.39;83.02;99414.56;4985179;28;20206;-81
2022/03/31 06:08:33;;;;;;;24.23;15.37;;;;;;;3.39;83.10;99415.41;5001310;28;20283;-82
2022/03/31 06:11:00;;;;;;;26.20;17.03;;;;;;;3.42;82.87;99414.38;5002141;28;20216;-82
2022/03/31 06:13:28;;;;;;;29.10;17.20;;;;;;;3.43;83.31;99416.94;5001648;28;20212;-82
2022/03/31 06:15:54;;;;;;;33.60;20.67;;;;;;;3.47;83.07;99422.88;4996878;28;20672;-80
2022/03/31 06:18:22;;;;;;;25.83;16.83;;;;;;;3.52;82.32;99422.66;4996212;28;20231;-80
2022/03/31 06:20:49;;;;;;;29.90;17.67;;;;;;;3.53;82.56;99419.09;4996352;28;20208;-80
2022/03/31 06:23:15;;;;;;;29.77;17.90;;;;;;;3.55;82.95;99419.84;4996451;28;20203;-79
2022/03/31 06:25:42;;;;;;;27.17;16.67;;;;;;;3.56;82.82;99426.81;4996131;28;20226;-80
2022/03/31 06:28:09;;;;;;;27.03;16.93;;;;;;;3.57;82.22;99426.75;4995957;28;20228;-79
2022/03/31 06:30:37;;;;;;;26.37;15.30;;;;;;;3.56;81.97;99426.81;4995958;28;20209;-80
2022/03/31 06:33:04;;;;;;;26.27;16.53;;;;;;;3.55;81.82;99420.72;4996094;28;20208;-80
2022/03/31 06:35:30;;;;;;;30.47;16.90;;;;;;;3.56;82.30;99430.31;4995559;28;20208;-80
2022/03/31 06:37:57;;;;;;;34.67;18.13;;;;;;;3.57;81.86;99429.38;4995618;28;20240;-80
2022/03/31 06:40:23;;;;;;;31.17;17.40;;;;;;;3.59;82.08;99431.91;4995118;28;20258;-79
2022/03/31 06:42:50;;;;;;;31.90;19.30;;;;;;;3.61;81.88;99433.50;4995304;28;20214;-79
2022/03/31 06:45:18;;;;;;;36.23;19.10;;;;;;;3.64;81.58;99437.78;4995531;28;20257;-78
2022/03/31 06:47:47;;;;;;;30.43;18.57;;;;;;;3.63;82.34;99428.16;4995832;28;20223;-80
2022/03/31 06:50:14;;;;;;;30.13;18.33;;;;;;;3.65;81.70;99429.78;4996139;28;20712;-80
2022/03/31 06:52:41;;;;;;;37.60;20.93;;;;;;;3.66;81.89;99434.13;4996052;28;20660;-80
2022/03/31 06:55:08;;;;;;;30.73;17.97;;;;;;;3.66;81.28;99425.38;4996179;28;20594;-79
2022/03/31 06:57:35;;;;;;;35.57;18.30;;;;;;;3.66;81.81;99436.75;4995390;28;20235;-80
2022/03/31 07:00:02;;;;;;;33.53;19.73;;;;;;;3.69;81.85;99433.97;4995172;28;20216;-79
2022/03/31 07:02:29;;;;;;;30.83;18.80;;;;;;;3.71;81.85;99429.47;4995310;28;20241;-78
2022/03/31 07:04:57;;;;;;;31.83;18.30;;;;;;;3.73;81.02;99437.28;4995296;28;20281;-80
2022/03/31 07:07:24;;;;;;;27.53;18.17;;;;;;;3.73;80.94;99434.66;4995181;28;20246;-80
2022/03/31 07:09:51;;;;;;;31.03;16.93;;;;;;;3.75;81.02;99430.16;4995028;28;20838;-80
2022/03/31 07:12:17;;;;;;;28.47;17.47;;;;;;;3.77;81.38;99436.16;4995647;28;20879;-80
2022/03/31 07:14:44;;;;;;;26.33;15.20;;;;;;;3.77;80.79;99430.91;4995678;28;20239;-80
2022/03/31 07:17:12;;;;;;;25.90;14.40;;;;;;;3.77;80.68;99430.91;4995063;28;20713;-79
2022/03/31 07:19:39;;;;;;;19.83;14.40;;;;;;;3.76;79.98;99440.56;4994786;28;20231;-80
2022/03/31 07:22:07;;;;;;;21.53;14.63;;;;;;;3.78;80.73;99436.09;4994757;28;20227;-80
2022/03/31 07:24:33;;;;;;;25.60;16.90;;;;;;;3.80;79.93;99443.91;4994417;28;20202;-81
2022/03/31 07:27:01;;;;;;;27.77;19.37;;;;;;;3.80;79.96;99438.63;4994236;28;20228;-80
2022/03/31 07:29:28;;;;;;;26.93;18.27;;;;;;;3.80;80.35;99436.84;4994289;28;20626;-80
2022/03/31 07:31:54;;;;;;;22.57;16.70;;;;;;;3.84;80.18;99443.66;4994957;28;20210;-79
2022/03/31 07:34:21;;;;;;;30.10;18.60;;;;;;;3.89;80.07;99437.28;4994771;28;20208;-80
2022/03/31 07:36:47;;;;;;;27.47;17.93;;;;;;;3.93;79.18;99434.41;4995146;28;20238;-80
2022/03/31 07:39:15;;;;;;;23.03;14.23;;;;;;;3.91;78.88;99424.88;4994931;28;20227;-80
2022/03/31 07:41:42;;;;;;;19.97;15.37;;;;;;;3.86;78.85;99433.03;4994161;28;20300;-78
2022/03/31 07:44:08;;;;;;;19.53;14.73;;;;;;;3.90;78.38;99434.56;4996935;28;20207;-78
2022/03/31 07:46:35;;;;;;;16.43;12.23;;;;;;;3.93;78.66;99436.19;4998145;28;20610;-79
2022/03/31 07:49:01;;;;;;;15.97;10.57;;;;;;;3.93;77.91;99447.59;4997534;28;20204;-80
2022/03/31 07:51:29;;;;;;;17.63;12.77;;;;;;;3.92;77.29;99448.50;4997104;28;20207;-79
2022/03/31 07:53:56;;;;;;;16.10;12.27;;;;;;;3.90;77.29;99453.00;4997776;28;20219;-80
2022/03/31 07:56:24;;;;;;;13.97;11.03;;;;;;;3.93;77.50;99447.59;4996655;28;20866;-79
2022/03/31 07:58:50;;;;;;;13.27;10.93;;;;;;;3.90;76.67;99454.78;4996041;28;20231;-80
2022/03/31 08:01:17;;;;;;;16.63;11.30;;;;;;;3.89;76.12;99448.69;4995820;28;20219;-79
2022/03/31 08:03:43;;;;;;;17.37;11.60;;;;;;;3.89;75.97;99451.31;4996034;28;20299;-79
2022/03/31 08:06:10;;;;;;;14.63;12.10;;;;;;;3.84;74.67;99455.97;4996321;28;20720;-79
2022/03/31 08:08:38;;;;;;;14.87;12.17;;;;;;;3.79;74.24;99450.09;4996559;28;20223;-80
2022/03/31 08:11:04;;;;;;;20.97;11.87;;;;;;;3.77;73.95;99444.91;4996855;28;20234;-80
2022/03/31 08:13:32;;;;;;;19.07;13.53;;;;;;;3.74;74.36;99449.53;4996546;28;20208;-80
2022/03/31 08:15:59;;;;;;;23.97;15.63;;;;;;;3.74;73.86;99442.47;4996709;28;20222;-80
2022/03/31 08:18:28;;;;;;;19.53;14.17;;;;;;;3.77;73.85;99447.53;4997064;28;20338;-80
2022/03/31 08:20:57;;;;;;;20.03;14.80;;;;;;;3.81;73.63;99437.69;4996815;28;20246;-80
2022/03/31 08:23:23;;;;;;;21.40;15.43;;;;;;;3.83;73.12;99441.09;4996139;28;20215;-79
2022/03/31 08:25:50;;;;;;;19.10;13.90;;;;;;;3.82;73.26;99439.41;4997101;28;20208;-78
2022/03/31 08:28:17;;;;;;;22.37;15.60;;;;;;;3.85;73.32;99441.88;4996680;28;20203;-79
2022/03/31 08:30:44;;;;;;;22.70;15.03;;;;;;;3.89;73.04;99440.78;4996190;28;20219;-80
2022/03/31 08:33:11;;;;;;;22.70;15.87;;;;;;;3.94;73.04;99443.16;4995638;28;20815;-81
2022/03/31 08:35:38;;;;;;;26.13;16.20;;;;;;;3.96;72.48;99443.91;4996161;28;20725;-81
2022/03/31 08:38:05;;;;;;;22.47;15.53;;;;;;;3.97;72.01;99442.97;4996683;28;20227;-79
2022/03/31 08:40:32;;;;;;;24.33;16.30;;;;;;;3.98;71.44;99439.41;4995470;28;20221;-81
2022/03/31 08:42:58;;;;;;;24.23;16.73;;;;;;;4.00;71.35;99443.66;4996074;28;20203;-80
2022/03/31 08:45:25;;;;;;;24.57;17.23;;;;;;;4.02;71.08;99454.97;4995754;28;20214;-80
2022/03/31 08:47:54;;;;;;;23.87;15.73;;;;;;;4.03;71.12;99448.75;4995695;28;20223;-80
2022/03/31 08:50:22;;;;;;;23.73;17.37;;;;;;;4.07;71.75;99450.28;4995912;28;20238;-79
2022/03/31 08:52:49;;;;;;;20.17;14.80;;;;;;;4.13;71.70;99449.06;4996120;28;20576;-79
2022/03/31 08:55:17;;;;;;;24.40;15.20;;;;;;;4.15;71.26;99445.44;4960050;28;1062768;-79
2022/03/31 08:57:46;;;;;;;24.83;13.67;;;;;;;4.16;70.83;99438.38;4996771;28;20588;-79
2022/03/31 09:00:15;;;;;;;26.07;15.43;;;;;;;4.15;70.62;99455.13;4996831;28;20204;-78
2022/03/31 09:02:54;;;;;;;27.67;17.77;;;;;;;4.18;70.42;99441.78;4996557;28;20262;-79
2022/03/31 09:05:20;;;;;;;30.87;18.10;;;;;;;4.23;71.16;99450.28;4997216;28;20195;-78
2022/03/31 09:07:55;;;;;;;26.73;15.87;;;;;;;4.31;71.39;99447.19;4997721;28;20231;-80
2022/03/31 09:10:29;;;;;;;25.40;17.27;;;;;;;4.34;70.49;99453.13;4999769;28;20290;-81
2022/03/31 09:12:55;;;;;;;21.07;15.80;;;;;;;4.39;70.94;99447.63;4999224;28;20207;-80
2022/03/31 09:15:22;;;;;;;25.73;16.93;;;;;;;4.43;70.64;99450.00;4999467;28;20302;-81
2022/03/31 09:17:55;;;;;;;23.77;16.00;;;;;;;4.48;70.67;99449.72;4999849;28;20242;-80
2022/03/31 09:20:22;;;;;;;24.73;15.73;;;;;;;4.52;70.18;99453.88;4999337;28;20697;-79
2022/03/31 09:22:50;;;;;;;25.97;16.27;;;;;;;4.53;70.36;99461.69;4999639;28;20319;-81
2022/03/31 09:25:27;;;;;;;27.87;16.80;;;;;;;4.56;69.49;99451.91;4998928;28;20208;-82
2022/03/31 09:27:55;;;;;;;27.90;17.57;;;;;;;4.56;69.34;99457.19;4998950;28;20259;-81
2022/03/31 09:30:22;;;;;;;26.00;16.93;;;;;;;4.52;69.55;99462.63;5003240;28;20195;-80
2022/03/31 09:32:50;;;;;;;27.43;18.13;;;;;;;4.53;69.94;99460.84;5011037;28;20208;-80
2022/03/31 09:35:21;;;;;;;28.43;15.93;;;;;;;4.52;69.23;99459.16;4999674;28;20211;-82
2022/03/31 09:37:49;;;;;;;26.50;16.47;;;;;;;4.48;68.81;99458.47;4999497;28;20230;-80
2022/03/31 09:40:16;;;;;;;28.87;17.27;;;;;;;4.46;69.02;99463.00;4989533;28;20231;-80
2022/03/31 09:42:43;;;;;;;27.13;17.67;;;;;;;4.46;69.38;99459.53;4979948;28;20204;-80
2022/03/31 09:45:10;;;;;;;28.47;15.53;;;;;;;4.45;69.10;99460.47;4980348;28;20223;-81
2022/03/31 09:47:50;;;;;;;27.10;17.77;;;;;;;4.45;69.66;99456.03;4980115;28;20263;-79
2022/03/31 09:50:19;;;;;;;25.57;15.73;;;;;;;4.45;68.87;99460.47;4990398;28;20198;-81
2022/03/31 09:52:45;;;;;;;30.47;18.50;;;;;;;4.48;69.25;99470.81;4999355;28;20204;-79
2022/03/31 09:55:12;;;;;;;26.20;17.33;;;;;;;4.48;68.56;99468.16;4998807;28;20226;-82
2022/03/31 09:57:39;;;;;;;33.10;18.47;;;;;;;4.46;68.36;99470.91;4998264;28;20720;-82
2022/03/31 10:00:08;;;;;;;23.83;16.30;;;;;;;4.46;68.49;99463.00;4998806;28;20211;-81
2022/03/31 10:02:36;;;;;;;25.07;16.43;;;;;;;4.48;68.54;99465.53;4985074;28;20275;-80
2022/03/31 10:05:03;;;;;;;22.43;17.30;;;;;;;4.50;68.40;99455.75;4978703;28;20220;-81
2022/03/31 10:07:31;;;;;;;22.00;15.40;;;;;;;4.53;69.02;99466.13;4979112;28;20232;-80
2022/03/31 10:09:59;;;;;;;25.43;16.80;;;;;;;4.52;68.58;99465.28;4979828;28;20231;-82
2022/03/31 10:12:33;;;;;;;26.23;17.77;;;;;;;4.53;68.28;99463.50;4979781;28;20204;-81
2022/03/31 10:15:03;;;;;;;36.17;16.60;;;;;;;4.58;68.78;99461.44;4980242;28;20216;-79
2022/03/31 10:17:32;;;;;;;26.63;17.60;;;;;;;4.63;68.60;99464.69;4981818;28;20228;-81
2022/03/31 10:20:08;;;;;;;26.13;16.30;;;;;;;4.66;68.63;99466.28;4978441;28;20240;-82
2022/03/31 10:25:21;;;;;;;20.40;14.27;;;;;;;4.69;68.18;99458.16;4978589;28;20199;-80
2022/03/31 10:27:50;;;;;;;16.93;12.83;;;;;;;4.71;67.79;99451.03;4978069;28;20224;-80
2022/03/31 10:30:18;;;;;;;18.33;14.13;;;;;;;4.69;67.81;99448.47;4993024;28;20637;-79
2022/03/31 10:32:53;;;;;;;16.83;12.40;;;;;;;4.65;66.89;99446.97;4997717;28;20290;-82
2022/03/31 10:35:25;;;;;;;16.00;11.80;;;;;;;4.64;67.22;99444.44;5010909;28;20565;-80
2022/03/31 10:37:53;;;;;;;14.57;9.80;;;;;;;4.63;66.86;99442.72;5000405;28;20255;-80
2022/03/31 10:40:32;;;;;;;14.17;10.27;;;;;;;4.62;67.29;99444.50;4997963;28;20227;-80
2022/03/31 10:43:00;;;;;;;14.40;9.93;;;;;;;4.64;66.63;99449.69;4994508;28;20215;-79
2022/03/31 10:45:38;;;;;;;11.43;9.33;;;;;;;4.67;66.41;99439.78;4996413;28;20204;-80
2022/03/31 10:48:16;;;;;;;12.07;8.97;;;;;;;4.71;66.54;99443.97;4994533;28;20256;-79
2022/03/31 10:50:42;;;;;;;13.23;9.57;;;;;;;4.73;65.99;99436.81;4991327;28;20215;-80
2022/03/31 10:53:10;;;;;;;12.40;9.20;;;;;;;4.75;65.80;99427.03;4988604;28;20214;-79
2022/03/31 10:55:40;;;;;;;10.40;8.03;;;;;;;4.80;65.91;99434.69;4994877;28;20220;-80
2022/03/31 10:58:07;;;;;;;11.67;9.20;;;;;;;4.86;66.18;99432.50;4994228;28;20223;-82
2022/03/31 11:00:34;;;;;;;10.60;9.13;;;;;;;4.92;65.57;99433.09;4995762;28;20227;-79
2022/03/31 11:03:01;;;;;;;11.53;8.80;;;;;;;4.98;65.40;99433.59;4997327;28;20213;-81
2022/03/31 11:05:28;;;;;;;11.00;8.57;;;;;;;5.03;65.18;99436.78;4994771;28;20207;-79
2022/03/31 11:08:03;;;;;;;10.67;8.33;;;;;;;5.06;64.48;99433.09;4997309;28;20227;-80
2022/03/31 11:10:41;;;;;;;11.23;8.00;;;;;;;5.13;64.57;99421.25;4998845;28;20225;-79
2022/03/31 11:13:08;;;;;;;8.00;6.40;;;;;;;5.18;64.15;99417.41;4998334;28;20210;-80
2022/03/31 11:15:35;;;;;;;9.87;7.87;;;;;;;5.23;64.43;99425.03;4991274;28;20212;-79
2022/03/31 11:18:03;;;;;;;9.50;7.67;;;;;;;5.29;64.46;99415.88;4985879;28;20246;-81
2022/03/31 11:20:30;;;;;;;9.03;7.13;;;;;;;5.34;63.86;99419.09;4993865;28;20235;-79
2022/03/31 11:22:59;;;;;;;7.57;6.47;;;;;;;5.38;63.69;99416.16;4994416;28;20279;-81
2022/03/31 11:25:27;;;;;;;7.53;5.77;;;;;;;5.45;63.50;99409.56;4991701;28;20231;-82
2022/03/31 11:27:56;;;;;;;8.87;6.67;;;;;;;5.52;63.43;99394.19;4993242;28;20223;-80
2022/03/31 11:30:25;;;;;;;9.57;7.20;;;;;;;5.61;63.05;99409.44;4992276;28;20207;-81
2022/03/31 11:32:53;;;;;;;11.07;5.93;;;;;;;5.71;62.28;99401.81;4994246;28;20218;-81
2022/03/31 11:35:22;;;;;;;11.53;7.10;;;;;;;5.76;61.91;99405.84;4995318;28;20195;-80
2022/03/31 11:37:50;;;;;;;8.83;6.80;;;;;;;5.84;61.82;99400.94;4996049;28;20227;-82
2022/03/31 11:40:21;;;;;;;12.67;7.43;;;;;;;5.88;61.11;99401.59;4993819;28;20233;-82
2022/03/31 11:42:49;;;;;;;8.10;6.50;;;;;;;5.96;60.46;99399.31;4994596;28;20207;-80
2022/03/31 11:45:33;;;;;;;10.67;6.23;;;;;;;6.03;60.34;99392.69;4997523;28;20250;-80
2022/03/31 11:48:01;;;;;;;9.17;6.37;;;;;;;6.11;59.61;99394.84;4996843;28;20251;-80
2022/03/31 11:50:30;;;;;;;8.17;5.97;;;;;;;6.12;58.54;99397.38;4991916;28;20210;-80
2022/03/31 11:52:58;;;;;;;6.67;5.43;;;;;;;6.12;57.32;99381.53;4996005;28;20220;-82